createdAt,value
2022-09-11T00:01:19.732Z,14.16
2022-09-11T00:03:47.267Z,13.82
2022-09-11T00:06:27.716Z,14.93
2022-09-11T00:09:00.596Z,14.26
2022-09-11T00:11:30.534Z,14.81
2022-09-11T00:13:57.647Z,14.79
2022-09-11T00:16:34.756Z,14.55
2022-09-11T00:19:07.570Z,14.64
2022-09-11T00:21:34.420Z,14.05
2022-09-11T00:24:01.279Z,14.57
2022-09-11T00:26:28.605Z,13.43
2022-09-11T00:28:56.201Z,13.97
2022-09-11T00:31:26.209Z,14.44
2022-09-11T00:33:52.992Z,12.18
2022-09-11T00:36:22.871Z,12.97
2022-09-11T00:38:50.156Z,12.89
2022-09-11T00:41:21.836Z,14.36
2022-09-11T00:43:51.989Z,13.78
2022-09-11T00:46:19.549Z,11.28
2022-09-11T00:48:50.380Z,14.22
2022-09-11T00:51:26.111Z,13.85
2022-09-11T00:53:56.652Z,13.62
2022-09-11T00:56:27.434Z,14.41
2022-09-11T00:58:56.259Z,13.41
2022-09-11T01:01:23.027Z,13.80
2022-09-11T01:03:50.527Z,13.36
2022-09-11T01:06:18.607Z,12.83
2022-09-11T01:08:45.375Z,14.42
2022-09-11T01:11:18.118Z,14.71
2022-09-11T01:13:57.718Z,13.31
2022-09-11T01:16:53.786Z,13.90
2022-09-11T01:19:59.057Z,14.91
2022-09-11T01:22:46.696Z,14.60
2022-09-11T01:25:38.610Z,14.89
2022-09-11T01:28:13.868Z,14.75
2022-09-11T01:30:46.783Z,15.11
2022-09-11T01:33:23.334Z,15.38
2022-09-11T01:36:07.751Z,15.43
2022-09-11T01:38:52.661Z,15.33
2022-09-11T01:41:27.748Z,15.55
2022-09-11T01:44:18.133Z,15.60
2022-09-11T01:46:49.833Z,15.39
2022-09-11T01:49:21.172Z,15.67
2022-09-11T01:51:52.420Z,15.71
2022-09-11T01:54:23.776Z,15.73
2022-09-11T01:56:55.828Z,15.60
2022-09-11T01:59:41.486Z,15.49
2022-09-11T02:02:13.411Z,15.04
2022-09-11T02:04:48.771Z,15.85
2022-09-11T02:07:21.895Z,14.95
2022-09-11T02:10:01.556Z,15.91
2022-09-11T02:12:40.883Z,15.54
2022-09-11T02:15:09.094Z,15.18
2022-09-11T02:17:52.233Z,15.97
2022-09-11T02:20:20.960Z,15.79
2022-09-11T02:22:48.996Z,14.90
2022-09-11T02:25:16.388Z,15.50
2022-09-11T02:27:44.897Z,15.79
2022-09-11T02:30:13.150Z,16.05
2022-09-11T02:32:43.564Z,16.05
2022-09-11T02:35:11.324Z,16.02
2022-09-11T02:38:20.198Z,15.73
2022-09-11T02:41:01.551Z,15.67
2022-09-11T02:43:29.939Z,16.06
2022-09-11T02:46:31.956Z,16.07
2022-09-11T02:49:19.457Z,16.06
2022-09-11T02:52:12.646Z,16.05
2022-09-11T02:55:12.489Z,15.78
2022-09-11T02:57:51.030Z,15.42
2022-09-11T03:00:17.783Z,16.03
2022-09-11T03:02:44.454Z,15.92
2022-09-11T03:05:12.494Z,16.03
2022-09-11T03:07:41.165Z,16.03
2022-09-11T03:10:11.129Z,16.05
2022-09-11T03:12:39.152Z,15.42
2022-09-11T03:15:06.711Z,14.54
2022-09-11T03:17:33.562Z,15.73
2022-09-11T03:20:00.227Z,16.06
2022-09-11T03:22:26.909Z,16.09
2022-09-11T03:24:53.983Z,15.86
2022-09-11T03:27:22.082Z,15.85
2022-09-11T03:29:49.623Z,15.77
2022-09-11T03:32:16.730Z,14.71
2022-09-11T03:34:43.484Z,16.06
2022-09-11T03:37:10.295Z,15.65
2022-09-11T03:39:37.044Z,15.26
2022-09-11T03:42:03.988Z,15.17
2022-09-11T03:44:30.866Z,15.48
2022-09-11T03:46:57.653Z,14.58
2022-09-11T03:49:24.846Z,15.17
2022-09-11T03:51:51.504Z,15.58
2022-09-11T03:54:20.991Z,15.98
2022-09-11T03:56:49.529Z,14.89
2022-09-11T03:59:16.419Z,14.35
2022-09-11T04:01:44.190Z,15.57
2022-09-11T04:04:11.024Z,16.05
2022-09-11T04:06:42.029Z,14.15
2022-09-11T04:09:09.062Z,15.33
2022-09-11T04:11:39.477Z,15.80
2022-09-11T04:14:13.011Z,14.94
2022-09-11T04:16:40.964Z,15.29
2022-09-11T04:19:07.696Z,15.34
2022-09-11T04:21:34.761Z,14.25
2022-09-11T04:24:02.019Z,15.23
2022-09-11T04:26:32.241Z,11.76
2022-09-11T04:29:14.314Z,15.87
2022-09-11T04:31:41.277Z,15.55
2022-09-11T04:34:11.530Z,15.87
2022-09-11T04:36:38.837Z,15.51
2022-09-11T04:39:09.699Z,14.46
2022-09-11T04:41:37.339Z,15.48
2022-09-11T04:44:05.611Z,15.71
2022-09-11T04:46:37.704Z,15.70
2022-09-11T04:49:08.944Z,15.87
2022-09-11T04:51:37.124Z,15.06
2022-09-11T04:54:05.627Z,15.85
2022-09-11T04:56:40.153Z,15.83
2022-09-11T04:59:22.245Z,15.69
2022-09-11T05:01:57.252Z,15.87
2022-09-11T05:04:26.147Z,15.89
2022-09-11T05:06:54.625Z,15.49
2022-09-11T05:09:21.472Z,15.52
2022-09-11T05:11:48.925Z,15.66
2022-09-11T05:14:18.473Z,15.05
2022-09-11T05:16:47.892Z,15.35
2022-09-11T05:19:16.949Z,15.67
2022-09-11T05:21:45.546Z,14.82
2022-09-11T05:24:12.243Z,12.67
2022-09-11T05:26:40.610Z,14.11
2022-09-11T05:29:13.098Z,15.64
2022-09-11T05:31:53.286Z,14.91
2022-09-11T05:34:22.165Z,15.59
2022-09-11T05:36:49.743Z,14.75
2022-09-11T05:39:17.649Z,14.92
2022-09-11T05:41:44.347Z,14.13
2022-09-11T05:44:12.232Z,13.55
2022-09-11T05:46:40.117Z,15.79
2022-09-11T05:49:07.001Z,14.40
2022-09-11T05:51:35.830Z,15.41
2022-09-11T05:54:04.059Z,15.04
2022-09-11T05:56:32.154Z,15.77
2022-09-11T05:59:04.936Z,15.35
2022-09-11T06:01:36.258Z,15.79
2022-09-11T06:04:19.718Z,15.16
2022-09-11T06:06:48.768Z,15.15
2022-09-11T06:09:16.761Z,14.86
2022-09-11T06:11:43.882Z,14.84
2022-09-11T06:14:13.196Z,15.26
2022-09-11T06:16:42.249Z,13.94
2022-09-11T06:19:12.335Z,15.34
2022-09-11T06:21:39.503Z,15.60
2022-09-11T06:24:27.124Z,14.96
2022-09-11T06:26:55.349Z,14.04
2022-09-11T06:29:22.765Z,14.60
2022-09-11T06:31:51.557Z,15.51
2022-09-11T06:34:22.292Z,15.60
2022-09-11T06:36:52.317Z,15.80
2022-09-11T06:39:26.707Z,16.02
2022-09-11T06:41:54.111Z,16.10
2022-09-11T06:44:27.411Z,13.74
2022-09-11T06:46:57.404Z,16.35
2022-09-11T06:49:24.649Z,15.49
2022-09-11T06:52:09.997Z,16.41
2022-09-11T06:54:37.743Z,16.51
2022-09-11T06:57:09.557Z,16.55
2022-09-11T06:59:36.233Z,16.27
2022-09-11T07:02:03.226Z,16.69
2022-09-11T07:04:30.229Z,16.27
2022-09-11T07:06:57.134Z,16.53
2022-09-11T07:09:25.168Z,16.85
2022-09-11T07:11:55.508Z,16.06
2022-09-11T07:14:24.414Z,16.86
2022-09-11T07:16:57.958Z,16.49
2022-09-11T07:19:26.074Z,13.53
2022-09-11T07:21:52.740Z,16.60
2022-09-11T07:24:21.323Z,16.14
2022-09-11T07:26:49.080Z,15.40
2022-09-11T07:29:29.347Z,16.73
2022-09-11T07:31:58.609Z,16.13
2022-09-11T07:34:26.822Z,14.22
2022-09-11T07:36:54.209Z,16.95
2022-09-11T07:39:23.817Z,16.99
2022-09-11T07:41:56.425Z,16.47
2022-09-11T07:44:27.780Z,15.19
2022-09-11T07:46:54.719Z,16.27
2022-09-11T07:49:21.620Z,16.46
2022-09-11T07:51:48.715Z,16.12
2022-09-11T07:54:28.985Z,16.68
2022-09-11T07:56:56.275Z,17.08
2022-09-11T07:59:22.984Z,16.17
2022-09-11T08:01:51.218Z,16.59
2022-09-11T08:04:18.147Z,17.22
2022-09-11T08:06:45.357Z,16.55
2022-09-11T08:09:20.412Z,17.89
2022-09-11T08:11:55.864Z,17.99
2022-09-11T08:14:24.785Z,18.08
2022-09-11T08:16:54.192Z,16.37
2022-09-11T08:19:24.103Z,18.27
2022-09-11T08:21:55.720Z,18.53
2022-09-11T08:24:24.470Z,16.97
2022-09-11T08:26:57.333Z,17.01
2022-09-11T08:29:26.276Z,18.24
2022-09-11T08:31:54.004Z,17.02
2022-09-11T08:34:22.253Z,17.24
2022-09-11T08:36:50.910Z,17.49
2022-09-11T08:39:18.686Z,18.24
2022-09-11T08:41:59.354Z,17.71
2022-09-11T08:44:50.499Z,18.11
2022-09-11T08:47:39.525Z,17.99
2022-09-11T08:50:23.418Z,15.40
2022-09-11T08:52:51.237Z,18.20
2022-09-11T08:55:41.121Z,18.35
2022-09-11T08:58:19.043Z,18.35
2022-09-11T09:00:58.390Z,17.47
2022-09-11T09:03:49.625Z,17.93
2022-09-11T09:06:36.489Z,18.55
2022-09-11T09:09:29.783Z,18.61
2022-09-11T09:12:18.194Z,18.68
2022-09-11T09:15:17.029Z,18.63
2022-09-11T09:18:07.397Z,18.55
2022-09-11T09:20:38.279Z,14.00
2022-09-11T09:23:19.537Z,15.00
2022-09-11T09:25:53.130Z,17.53
2022-09-11T09:28:21.878Z,17.09
2022-09-11T09:30:58.600Z,18.00
2022-09-11T09:33:52.896Z,16.84
2022-09-11T09:36:24.004Z,17.25
2022-09-11T09:38:52.765Z,15.64
2022-09-11T09:41:41.391Z,18.40
2022-09-11T09:44:46.403Z,17.07
2022-09-11T09:47:15.034Z,15.75
2022-09-11T09:49:43.225Z,18.43
2022-09-11T09:52:20.184Z,18.35
2022-09-11T09:54:55.748Z,16.74
2022-09-11T09:57:26.534Z,18.30
2022-09-11T10:00:02.187Z,19.22
2022-09-11T10:02:42.261Z,19.64
2022-09-11T10:05:20.882Z,17.94
2022-09-11T10:07:53.229Z,19.59
2022-09-11T10:10:32.997Z,20.74
2022-09-11T10:13:18.740Z,19.66
2022-09-11T10:15:49.123Z,20.21
2022-09-11T10:18:42.736Z,20.78
2022-09-11T10:21:12.608Z,21.66
2022-09-11T10:24:00.117Z,21.45
2022-09-11T10:26:32.946Z,22.20
2022-09-11T10:29:12.289Z,22.23
2022-09-11T10:31:40.930Z,22.57
2022-09-11T10:34:16.022Z,22.42
2022-09-11T10:36:53.975Z,23.27
2022-09-11T10:39:23.136Z,22.67
2022-09-11T10:41:54.508Z,23.25
2022-09-11T10:44:22.597Z,22.28
2022-09-11T10:47:15.593Z,22.61
2022-09-11T10:49:42.572Z,23.67
2022-09-11T10:52:09.105Z,23.87
2022-09-11T10:54:54.958Z,24.00
2022-09-11T10:57:34.067Z,21.82
2022-09-11T11:00:21.029Z,24.05
2022-09-11T11:02:54.469Z,24.00
2022-09-11T11:05:44.214Z,23.84
2022-09-11T11:08:43.987Z,23.68
2022-09-11T11:11:48.628Z,22.76
2022-09-11T11:14:44.343Z,22.74
2022-09-11T11:17:46.663Z,22.52
2022-09-11T11:20:50.162Z,23.39
2022-09-11T11:23:45.228Z,23.45
2022-09-11T11:26:52.628Z,22.37
2022-09-11T11:29:44.172Z,22.79
2022-09-11T11:32:40.538Z,22.45
2022-09-11T11:35:30.418Z,21.15
2022-09-11T11:38:28.022Z,22.49
2022-09-11T11:41:03.315Z,22.61
2022-09-11T11:43:34.423Z,22.05
2022-09-11T11:46:20.170Z,20.46
2022-09-11T11:49:04.710Z,21.97
2022-09-11T11:51:41.063Z,21.29
2022-09-11T11:54:20.332Z,22.63
2022-09-11T11:56:56.595Z,22.49
2022-09-11T11:59:44.578Z,21.47
2022-09-11T12:02:11.879Z,22.40
2022-09-11T12:05:05.393Z,22.49
2022-09-11T12:07:35.310Z,22.06
2022-09-11T12:10:05.022Z,21.69
2022-09-11T12:12:43.859Z,21.52
2022-09-11T12:15:22.723Z,20.87
2022-09-11T12:18:07.312Z,22.37
2022-09-11T12:20:40.794Z,22.47
2022-09-11T12:23:47.013Z,22.48
2022-09-11T12:26:17.206Z,22.43
2022-09-11T12:28:44.294Z,22.32
2022-09-11T12:31:14.638Z,21.77
2022-09-11T12:33:41.311Z,22.27
2022-09-11T12:36:12.840Z,22.14
2022-09-11T12:38:54.197Z,20.86
2022-09-11T12:41:35.654Z,21.91
2022-09-11T12:44:04.454Z,21.97
2022-09-11T12:46:31.168Z,21.84
2022-09-11T12:49:23.313Z,22.30
2022-09-11T12:51:54.310Z,22.21
2022-09-11T12:54:40.146Z,22.88
2022-09-11T12:57:14.560Z,22.38
2022-09-11T12:59:46.267Z,22.63
2022-09-11T13:02:27.674Z,23.05
2022-09-11T13:04:56.404Z,22.69
2022-09-11T13:07:43.053Z,19.49
2022-09-11T13:10:28.860Z,23.28
2022-09-11T13:12:58.669Z,22.49
2022-09-11T13:15:57.220Z,23.31
2022-09-11T13:18:33.667Z,22.33
2022-09-11T13:21:23.225Z,23.57
2022-09-11T13:23:53.193Z,24.14
2022-09-11T13:26:26.366Z,23.45
2022-09-11T13:28:56.504Z,24.74
2022-09-11T13:31:35.966Z,23.95
2022-09-11T13:34:12.735Z,22.98
2022-09-11T13:36:40.575Z,24.99
2022-09-11T13:39:09.131Z,24.36
2022-09-11T13:41:44.585Z,23.64
2022-09-11T13:44:30.398Z,24.39
2022-09-11T13:47:00.532Z,23.66
2022-09-11T13:49:39.007Z,23.90
2022-09-11T13:52:06.958Z,23.11
2022-09-11T13:54:41.199Z,23.36
2022-09-11T13:57:25.542Z,24.15
2022-09-11T13:59:56.848Z,24.11
2022-09-11T14:02:37.237Z,24.56
2022-09-11T14:05:13.667Z,24.33
2022-09-11T14:08:04.645Z,24.82
2022-09-11T14:10:38.560Z,25.28
2022-09-11T14:13:33.186Z,25.08
2022-09-11T14:16:14.383Z,24.13
2022-09-11T14:18:48.851Z,24.80
2022-09-11T14:21:37.581Z,23.73
2022-09-11T14:24:24.515Z,24.46
2022-09-11T14:26:51.646Z,23.94
2022-09-11T14:29:28.284Z,24.26
2022-09-11T14:32:34.186Z,23.81
2022-09-11T14:35:01.285Z,24.16
2022-09-11T14:37:34.641Z,22.26
2022-09-11T14:40:06.859Z,21.49
2022-09-11T14:42:36.065Z,22.23
2022-09-11T14:45:10.737Z,24.09
2022-09-11T14:47:38.088Z,21.67
2022-09-11T14:50:12.257Z,23.09
2022-09-11T14:52:42.452Z,22.71
2022-09-11T14:55:17.852Z,22.73
2022-09-11T14:57:46.569Z,21.45
2022-09-11T15:00:15.890Z,21.93
2022-09-11T15:02:42.618Z,22.29
2022-09-11T15:05:15.923Z,22.04
2022-09-11T15:07:45.460Z,21.10
2022-09-11T15:10:13.798Z,21.28
2022-09-11T15:12:40.526Z,20.81
2022-09-11T15:15:08.031Z,21.92
2022-09-11T15:17:36.305Z,21.58
2022-09-11T15:20:09.514Z,22.26
2022-09-11T15:22:38.824Z,22.46
2022-09-11T15:25:06.474Z,21.07
2022-09-11T15:27:33.915Z,22.27
2022-09-11T15:30:00.709Z,22.21
2022-09-11T15:32:28.210Z,22.35
2022-09-11T15:34:55.731Z,22.47
2022-09-11T15:37:24.377Z,20.79
2022-09-11T15:39:51.498Z,22.42
2022-09-11T15:42:18.623Z,21.32
2022-09-11T15:44:46.177Z,22.32
2022-09-11T15:47:13.662Z,21.78
2022-09-11T15:49:42.476Z,22.31
2022-09-11T15:52:09.183Z,22.37
2022-09-11T15:54:35.901Z,18.81
2022-09-11T15:57:03.090Z,22.22
2022-09-11T15:59:30.130Z,21.56
2022-09-11T16:01:57.342Z,22.16
2022-09-11T16:04:28.250Z,22.07
2022-09-11T16:06:56.204Z,20.59
2022-09-11T16:09:27.099Z,21.81
2022-09-11T16:11:55.029Z,20.73
2022-09-11T16:14:33.139Z,19.94
2022-09-11T16:17:02.071Z,21.52
2022-09-11T16:19:30.242Z,19.49
2022-09-11T16:21:59.006Z,20.29
2022-09-11T16:24:27.464Z,21.04
2022-09-11T16:26:56.138Z,20.70
2022-09-11T16:29:31.536Z,21.12
2022-09-11T16:32:11.917Z,19.82
2022-09-11T16:34:38.877Z,21.02
2022-09-11T16:37:05.784Z,17.36
2022-09-11T16:39:34.067Z,20.63
2022-09-11T16:42:02.193Z,20.26
2022-09-11T16:44:29.192Z,18.53
2022-09-11T16:46:55.857Z,20.80
2022-09-11T16:49:23.999Z,20.31
2022-09-11T16:51:52.044Z,19.91
2022-09-11T16:54:23.281Z,20.62
2022-09-11T16:56:50.075Z,18.66
2022-09-11T16:59:16.754Z,19.53
2022-09-11T17:01:43.629Z,19.90
2022-09-11T17:04:10.216Z,20.12
2022-09-11T17:06:37.101Z,20.27
2022-09-11T17:09:04.332Z,20.19
2022-09-11T17:11:34.268Z,19.25
2022-09-11T17:14:02.190Z,19.54
2022-09-11T17:16:32.091Z,19.12
2022-09-11T17:19:01.494Z,19.78
2022-09-11T17:21:30.466Z,19.70
2022-09-11T17:23:58.142Z,19.33
2022-09-11T17:26:26.975Z,18.55
2022-09-11T17:28:55.849Z,19.47
2022-09-11T17:31:23.194Z,17.95
2022-09-11T17:33:54.379Z,18.48
2022-09-11T17:36:24.194Z,17.99
2022-09-11T17:38:52.641Z,19.07
2022-09-11T17:41:20.939Z,17.52
2022-09-11T17:43:48.720Z,17.81
2022-09-11T17:46:20.666Z,18.79
2022-09-11T17:48:48.053Z,17.65
2022-09-11T17:51:21.281Z,17.46
2022-09-11T17:53:56.968Z,17.89
2022-09-11T17:56:28.421Z,17.91
2022-09-11T17:59:06.980Z,18.11
2022-09-11T18:01:34.957Z,17.68
2022-09-11T18:04:05.577Z,16.42
2022-09-11T18:06:39.509Z,18.04
2022-09-11T18:09:14.735Z,17.73
2022-09-11T18:11:43.205Z,17.84
2022-09-11T18:14:10.544Z,17.76
2022-09-11T18:16:37.441Z,17.10
2022-09-11T18:19:05.488Z,16.39
2022-09-11T18:21:34.143Z,16.31
2022-09-11T18:24:06.462Z,16.36
2022-09-11T18:26:40.151Z,16.90
2022-09-11T18:29:10.822Z,16.37
2022-09-11T18:31:41.347Z,16.84
2022-09-11T18:34:10.828Z,17.11
2022-09-11T18:36:37.561Z,16.62
2022-09-11T18:39:04.984Z,17.04
2022-09-11T18:41:34.982Z,16.33
2022-09-11T18:44:04.368Z,16.94
2022-09-11T18:46:34.599Z,16.00
2022-09-11T18:49:01.367Z,16.43
2022-09-11T18:51:27.905Z,16.75
2022-09-11T18:53:54.706Z,16.47
2022-09-11T18:56:24.823Z,16.30
2022-09-11T18:58:52.438Z,15.63
2022-09-11T19:01:33.967Z,16.43
2022-09-11T19:04:15.858Z,16.34
2022-09-11T19:06:44.783Z,12.26
2022-09-11T19:09:14.733Z,16.15
2022-09-11T19:11:42.075Z,16.13
2022-09-11T19:14:14.183Z,16.15
2022-09-11T19:16:41.670Z,16.14
2022-09-11T19:19:11.238Z,15.57
2022-09-11T19:21:38.608Z,15.34
2022-09-11T19:24:08.326Z,16.08
2022-09-11T19:26:43.731Z,16.06
2022-09-11T19:29:13.452Z,16.01
2022-09-11T19:31:41.310Z,15.95
2022-09-11T19:34:11.981Z,15.44
2022-09-11T19:36:39.413Z,15.80
2022-09-11T19:39:06.506Z,15.77
2022-09-11T19:41:37.306Z,14.80
2022-09-11T19:44:08.346Z,15.67
2022-09-11T19:46:38.240Z,14.86
2022-09-11T19:49:06.583Z,15.51
2022-09-11T19:51:36.246Z,13.56
2022-09-11T19:54:09.154Z,14.90
2022-09-11T19:56:38.130Z,15.31
2022-09-11T19:59:09.461Z,14.69
2022-09-11T20:01:36.417Z,15.27
2022-09-11T20:04:05.799Z,13.56
2022-09-11T20:06:34.854Z,14.58
2022-09-11T20:09:27.271Z,14.52
2022-09-11T20:11:49.456Z,14.93
2022-09-11T20:14:16.451Z,14.61
2022-09-11T20:16:43.179Z,15.08
2022-09-11T20:19:10.061Z,15.02
2022-09-11T20:21:37.573Z,15.01
2022-09-11T20:24:06.395Z,14.93
2022-09-11T20:26:33.730Z,14.89
2022-09-11T20:29:03.203Z,13.81
2022-09-11T20:31:32.622Z,13.32
2022-09-11T20:34:00.764Z,12.32
2022-09-11T20:36:30.012Z,12.18
2022-09-11T20:39:05.891Z,14.70
2022-09-11T20:41:33.557Z,14.23
2022-09-11T20:44:07.555Z,14.58
2022-09-11T20:46:34.464Z,14.56
2022-09-11T20:49:06.769Z,13.60
2022-09-11T20:51:34.679Z,13.36
2022-09-11T20:54:01.694Z,12.88
2022-09-11T20:56:28.641Z,12.45
2022-09-11T20:58:56.369Z,14.45
2022-09-11T21:01:25.363Z,14.43
2022-09-11T21:03:54.027Z,13.68
2022-09-11T21:06:26.027Z,13.80
2022-09-11T21:09:04.993Z,14.00
2022-09-11T21:11:34.373Z,13.99
2022-09-11T21:14:14.463Z,14.36
2022-09-11T21:16:41.878Z,14.31
2022-09-11T21:19:10.125Z,14.27
2022-09-11T21:21:40.767Z,13.18
2022-09-11T21:24:14.600Z,14.23
2022-09-11T21:26:42.456Z,14.22
2022-09-11T21:29:11.225Z,11.62
2022-09-11T21:31:54.252Z,13.20
2022-09-11T21:34:21.784Z,13.83
2022-09-11T21:36:48.780Z,13.80
2022-09-11T22:12:42.012Z,13.22
2022-09-11T22:15:13.591Z,13.60
2022-09-11T22:17:41.022Z,14.04
2022-09-11T22:20:08.030Z,13.81
2022-09-11T22:22:39.242Z,13.37
2022-09-11T22:25:07.371Z,12.14
2022-09-11T22:27:34.517Z,13.17
2022-09-11T22:30:01.509Z,12.68
2022-09-11T22:32:28.182Z,13.09
2022-09-11T22:34:55.578Z,14.10
2022-09-11T22:37:25.374Z,14.05
2022-09-11T22:39:54.780Z,13.98
2022-09-11T22:42:21.415Z,12.63
2022-09-11T22:44:51.796Z,13.98
2022-09-11T22:47:19.556Z,12.69
2022-09-11T22:49:48.832Z,13.35
2022-09-11T22:52:23.363Z,8.33
2022-09-11T22:54:50.615Z,13.65
2022-09-11T22:57:17.759Z,10.22
2022-09-11T22:59:47.216Z,13.78
2022-09-11T23:02:15.361Z,12.95
2022-09-11T23:05:05.232Z,13.75
2022-09-11T23:07:31.847Z,13.75
2022-09-11T23:09:58.471Z,13.03
2022-09-11T23:12:25.133Z,13.77
2022-09-11T23:14:54.236Z,11.65
2022-09-11T23:17:21.639Z,13.35
2022-09-11T23:19:52.307Z,13.71
2022-09-11T23:22:20.073Z,13.33
2022-09-11T23:24:46.663Z,13.63
2022-09-11T23:27:13.381Z,12.51
2022-09-11T23:29:39.987Z,13.63
2022-09-11T23:32:07.108Z,12.34
2022-09-11T23:34:33.757Z,13.58
2022-09-11T23:37:00.549Z,12.74
2022-09-11T23:39:27.081Z,12.23
2022-09-11T23:42:00.332Z,12.73
2022-09-11T23:44:27.191Z,13.27
2022-09-11T23:46:53.699Z,13.48
2022-09-11T23:49:20.439Z,13.46
2022-09-11T23:51:49.002Z,12.78
2022-09-11T23:54:15.894Z,12.89
2022-09-11T23:56:42.528Z,12.67
2022-09-11T23:59:09.235Z,13.17
